sensor_id;sensor_type;location;lat;lon;timestamp;temperature;humidity
64882;HTU21D;51375;44.836;38.672;2024-02-23T00:00:04;6.98;62.28
64882;HTU21D;51375;44.836;38.672;2024-02-23T00:02:32;7.05;62.24
64882;HTU21D;51375;44.836;38.672;2024-02-23T00:04:58;7.12;62.18
64882;HTU21D;51375;44.836;38.672;2024-02-23T00:07:23;7.19;62.02
64882;HTU21D;51375;44.836;38.672;2024-02-23T00:09:49;7.26;61.89
64882;HTU21D;51375;44.836;38.672;2024-02-23T00:12:15;7.29;61.70
64882;HTU21D;51375;44.836;38.672;2024-02-23T00:14:41;7.34;61.67
64882;HTU21D;51375;44.836;38.672;2024-02-23T00:17:07;7.38;61.59
64882;HTU21D;51375;44.836;38.672;2024-02-23T00:19:34;7.40;61.54
64882;HTU21D;51375;44.836;38.672;2024-02-23T00:22:00;7.41;61.57
64882;HTU21D;51375;44.836;38.672;2024-02-23T00:24:26;7.43;61.55
64882;HTU21D;51375;44.836;38.672;2024-02-23T00:26:52;7.46;61.50
64882;HTU21D;51375;44.836;38.672;2024-02-23T00:29:18;7.47;61.50
64882;HTU21D;51375;44.836;38.672;2024-02-23T00:31:44;7.46;61.54
64882;HTU21D;51375;44.836;38.672;2024-02-23T00:34:13;7.48;61.64
64882;HTU21D;51375;44.836;38.672;2024-02-23T00:36:41;7.48;61.66
64882;HTU21D;51375;44.836;38.672;2024-02-23T00:39:08;7.50;61.63
64882;HTU21D;51375;44.836;38.672;2024-02-23T00:41:37;7.53;61.60
64882;HTU21D;51375;44.836;38.672;2024-02-23T00:44:03;7.57;61.50
64882;HTU21D;51375;44.836;38.672;2024-02-23T00:46:29;7.59;61.27
64882;HTU21D;51375;44.836;38.672;2024-02-23T00:48:55;7.57;61.32
64882;HTU21D;51375;44.836;38.672;2024-02-23T00:51:21;7.54;61.47
64882;HTU21D;51375;44.836;38.672;2024-02-23T00:53:47;7.50;61.59
64882;HTU21D;51375;44.836;38.672;2024-02-23T00:56:13;7.50;61.74
64882;HTU21D;51375;44.836;38.672;2024-02-23T00:58:39;7.52;61.77
64882;HTU21D;51375;44.836;38.672;2024-02-23T01:01:06;7.47;61.82
64882;HTU21D;51375;44.836;38.672;2024-02-23T01:03:32;7.38;62.07
64882;HTU21D;51375;44.836;38.672;2024-02-23T01:05:58;7.30;62.40
64882;HTU21D;51375;44.836;38.672;2024-02-23T01:08:24;7.28;62.50
64882;HTU21D;51375;44.836;38.672;2024-02-23T01:10:50;7.30;62.56
64882;HTU21D;51375;44.836;38.672;2024-02-23T01:13:17;7.31;62.63
64882;HTU21D;51375;44.836;38.672;2024-02-23T01:15:43;7.35;62.64
64882;HTU21D;51375;44.836;38.672;2024-02-23T01:18:09;7.43;62.53
64882;HTU21D;51375;44.836;38.672;2024-02-23T01:20:35;7.45;62.35
64882;HTU21D;51375;44.836;38.672;2024-02-23T01:23:01;7.49;62.30
64882;HTU21D;51375;44.836;38.672;2024-02-23T01:25:27;7.56;62.12
64882;HTU21D;51375;44.836;38.672;2024-02-23T01:27:53;7.57;61.98
64882;HTU21D;51375;44.836;38.672;2024-02-23T01:30:19;7.57;61.93
64882;HTU21D;51375;44.836;38.672;2024-02-23T01:32:46;7.56;61.92
64882;HTU21D;51375;44.836;38.672;2024-02-23T01:35:11;7.57;62.02
64882;HTU21D;51375;44.836;38.672;2024-02-23T01:37:38;7.56;61.95
64882;HTU21D;51375;44.836;38.672;2024-02-23T01:40:05;7.54;61.86
64882;HTU21D;51375;44.836;38.672;2024-02-23T01:42:31;7.39;62.10
64882;HTU21D;51375;44.836;38.672;2024-02-23T01:44:57;7.23;62.54
64882;HTU21D;51375;44.836;38.672;2024-02-23T01:47:24;7.19;62.70
64882;HTU21D;51375;44.836;38.672;2024-02-23T01:49:51;7.19;62.72
64882;HTU21D;51375;44.836;38.672;2024-02-23T01:52:17;7.22;62.69
64882;HTU21D;51375;44.836;38.672;2024-02-23T01:54:44;7.23;62.60
64882;HTU21D;51375;44.836;38.672;2024-02-23T01:57:10;7.23;62.57
64882;HTU21D;51375;44.836;38.672;2024-02-23T01:59:38;7.24;62.51
64882;HTU21D;51375;44.836;38.672;2024-02-23T02:02:04;7.24;62.42
64882;HTU21D;51375;44.836;38.672;2024-02-23T02:04:31;7.25;62.43
64882;HTU21D;51375;44.836;38.672;2024-02-23T02:07:00;7.30;62.29
64882;HTU21D;51375;44.836;38.672;2024-02-23T02:09:27;7.30;62.26
64882;HTU21D;51375;44.836;38.672;2024-02-23T02:11:53;7.29;62.28
64882;HTU21D;51375;44.836;38.672;2024-02-23T02:14:19;7.28;62.33
64882;HTU21D;51375;44.836;38.672;2024-02-23T02:16:45;7.22;62.46
64882;HTU21D;51375;44.836;38.672;2024-02-23T02:19:12;7.08;62.76
64882;HTU21D;51375;44.836;38.672;2024-02-23T02:21:38;7.01;63.05
64882;HTU21D;51375;44.836;38.672;2024-02-23T02:24:05;7.03;63.06
64882;HTU21D;51375;44.836;38.672;2024-02-23T02:26:31;7.08;62.94
64882;HTU21D;51375;44.836;38.672;2024-02-23T02:28:57;7.05;62.92
64882;HTU21D;51375;44.836;38.672;2024-02-23T02:31:24;7.01;62.99
64882;HTU21D;51375;44.836;38.672;2024-02-23T02:33:50;6.93;63.11
64882;HTU21D;51375;44.836;38.672;2024-02-23T02:36:17;6.84;63.32
64882;HTU21D;51375;44.836;38.672;2024-02-23T02:38:42;6.72;63.58
64882;HTU21D;51375;44.836;38.672;2024-02-23T02:41:09;6.60;63.85
64882;HTU21D;51375;44.836;38.672;2024-02-23T02:43:36;6.60;63.96
64882;HTU21D;51375;44.836;38.672;2024-02-23T02:46:02;6.69;63.89
64882;HTU21D;51375;44.836;38.672;2024-02-23T02:48:28;6.80;63.71
64882;HTU21D;51375;44.836;38.672;2024-02-23T02:50:54;6.91;63.44
64882;HTU21D;51375;44.836;38.672;2024-02-23T02:53:21;6.93;63.31
64882;HTU21D;51375;44.836;38.672;2024-02-23T02:55:47;6.91;63.35
64882;HTU21D;51375;44.836;38.672;2024-02-23T02:58:13;6.98;63.27
64882;HTU21D;51375;44.836;38.672;2024-02-23T03:00:40;7.05;63.13
64882;HTU21D;51375;44.836;38.672;2024-02-23T03:03:06;7.11;62.86
64882;HTU21D;51375;44.836;38.672;2024-02-23T03:05:32;7.14;62.66
64882;HTU21D;51375;44.836;38.672;2024-02-23T03:07:58;7.09;62.59
64882;HTU21D;51375;44.836;38.672;2024-02-23T03:10:24;7.00;62.70
64882;HTU21D;51375;44.836;38.672;2024-02-23T03:12:50;6.90;62.85
64882;HTU21D;51375;44.836;38.672;2024-02-23T03:15:16;6.75;63.11
64882;HTU21D;51375;44.836;38.672;2024-02-23T03:17:42;6.67;63.40
64882;HTU21D;51375;44.836;38.672;2024-02-23T03:20:08;6.71;63.43
64882;HTU21D;51375;44.836;38.672;2024-02-23T03:22:35;6.79;63.32
64882;HTU21D;51375;44.836;38.672;2024-02-23T03:25:04;6.86;63.06
64882;HTU21D;51375;44.836;38.672;2024-02-23T03:27:35;6.91;62.75
64882;HTU21D;51375;44.836;38.672;2024-02-23T03:30:05;6.94;62.61
64882;HTU21D;51375;44.836;38.672;2024-02-23T03:32:34;6.95;62.63
64882;HTU21D;51375;44.836;38.672;2024-02-23T03:35:03;6.96;62.61
64882;HTU21D;51375;44.836;38.672;2024-02-23T03:37:30;6.99;62.68
64882;HTU21D;51375;44.836;38.672;2024-02-23T03:39:56;7.02;62.59
64882;HTU21D;51375;44.836;38.672;2024-02-23T03:42:22;7.07;62.54
64882;HTU21D;51375;44.836;38.672;2024-02-23T03:44:48;7.11;62.42
64882;HTU21D;51375;44.836;38.672;2024-02-23T03:47:14;7.14;62.34
64882;HTU21D;51375;44.836;38.672;2024-02-23T03:49:40;7.16;62.22
64882;HTU21D;51375;44.836;38.672;2024-02-23T03:52:06;7.13;62.10
64882;HTU21D;51375;44.836;38.672;2024-02-23T03:54:32;6.96;62.34
64882;HTU21D;51375;44.836;38.672;2024-02-23T03:56:58;6.78;62.79
64882;HTU21D;51375;44.836;38.672;2024-02-23T03:59:24;6.65;63.10
64882;HTU21D;51375;44.836;38.672;2024-02-23T04:01:50;6.57;63.33
64882;HTU21D;51375;44.836;38.672;2024-02-23T04:04:17;6.51;63.37
64882;HTU21D;51375;44.836;38.672;2024-02-23T04:06:43;6.29;63.73
64882;HTU21D;51375;44.836;38.672;2024-02-23T04:09:09;6.08;64.26
64882;HTU21D;51375;44.836;38.672;2024-02-23T04:11:34;5.93;64.65
64882;HTU21D;51375;44.836;38.672;2024-02-23T04:14:01;5.91;64.80
64882;HTU21D;51375;44.836;38.672;2024-02-23T04:16:27;5.98;64.66
64882;HTU21D;51375;44.836;38.672;2024-02-23T04:18:53;6.10;64.40
64882;HTU21D;51375;44.836;38.672;2024-02-23T04:21:20;6.20;64.18
64882;HTU21D;51375;44.836;38.672;2024-02-23T04:23:46;6.27;63.96
64882;HTU21D;51375;44.836;38.672;2024-02-23T04:26:12;6.35;63.87
64882;HTU21D;51375;44.836;38.672;2024-02-23T04:28:39;6.41;63.80
64882;HTU21D;51375;44.836;38.672;2024-02-23T04:31:06;6.50;63.75
64882;HTU21D;51375;44.836;38.672;2024-02-23T04:33:32;6.58;63.66
64882;HTU21D;51375;44.836;38.672;2024-02-23T04:35:59;6.65;63.55
64882;HTU21D;51375;44.836;38.672;2024-02-23T04:38:25;6.67;63.47
64882;HTU21D;51375;44.836;38.672;2024-02-23T04:40:51;6.67;63.60
64882;HTU21D;51375;44.836;38.672;2024-02-23T04:43:17;6.71;63.60
64882;HTU21D;51375;44.836;38.672;2024-02-23T04:45:43;6.79;63.50
64882;HTU21D;51375;44.836;38.672;2024-02-23T04:48:10;6.85;63.52
64882;HTU21D;51375;44.836;38.672;2024-02-23T04:50:36;6.94;63.44
64882;HTU21D;51375;44.836;38.672;2024-02-23T04:53:02;7.03;63.23
64882;HTU21D;51375;44.836;38.672;2024-02-23T04:55:28;7.11;63.08
64882;HTU21D;51375;44.836;38.672;2024-02-23T04:57:54;7.15;63.04
64882;HTU21D;51375;44.836;38.672;2024-02-23T05:00:21;7.23;62.97
64882;HTU21D;51375;44.836;38.672;2024-02-23T05:02:47;7.27;62.95
64882;HTU21D;51375;44.836;38.672;2024-02-23T05:05:13;7.31;62.92
64882;HTU21D;51375;44.836;38.672;2024-02-23T05:07:39;7.35;62.86
64882;HTU21D;51375;44.836;38.672;2024-02-23T05:10:05;7.41;62.82
64882;HTU21D;51375;44.836;38.672;2024-02-23T05:12:31;7.46;62.73
64882;HTU21D;51375;44.836;38.672;2024-02-23T05:14:57;7.47;62.75
64882;HTU21D;51375;44.836;38.672;2024-02-23T05:17:23;7.46;62.89
64882;HTU21D;51375;44.836;38.672;2024-02-23T05:19:49;7.44;63.12
64882;HTU21D;51375;44.836;38.672;2024-02-23T05:22:15;7.45;63.27
64882;HTU21D;51375;44.836;38.672;2024-02-23T05:24:41;7.50;63.31
64882;HTU21D;51375;44.836;38.672;2024-02-23T05:27:07;7.58;63.24
64882;HTU21D;51375;44.836;38.672;2024-02-23T05:29:33;7.57;63.30
64882;HTU21D;51375;44.836;38.672;2024-02-23T05:31:59;7.54;63.46
64882;HTU21D;51375;44.836;38.672;2024-02-23T05:34:25;7.46;63.65
64882;HTU21D;51375;44.836;38.672;2024-02-23T05:36:51;7.40;63.88
64882;HTU21D;51375;44.836;38.672;2024-02-23T05:39:17;7.35;64.11
64882;HTU21D;51375;44.836;38.672;2024-02-23T05:41:43;7.31;64.32
64882;HTU21D;51375;44.836;38.672;2024-02-23T05:44:10;7.30;64.55
64882;HTU21D;51375;44.836;38.672;2024-02-23T05:46:36;7.39;64.50
64882;HTU21D;51375;44.836;38.672;2024-02-23T05:49:03;7.49;64.29
64882;HTU21D;51375;44.836;38.672;2024-02-23T05:51:32;7.60;64.14
64882;HTU21D;51375;44.836;38.672;2024-02-23T05:53:58;7.65;64.11
64882;HTU21D;51375;44.836;38.672;2024-02-23T05:56:24;7.71;64.08
64882;HTU21D;51375;44.836;38.672;2024-02-23T05:58:51;7.82;63.92
64882;HTU21D;51375;44.836;38.672;2024-02-23T06:01:18;7.91;63.73
64882;HTU21D;51375;44.836;38.672;2024-02-23T06:03:44;7.98;63.68
64882;HTU21D;51375;44.836;38.672;2024-02-23T06:06:11;8.06;63.65
64882;HTU21D;51375;44.836;38.672;2024-02-23T06:08:37;8.16;63.56
64882;HTU21D;51375;44.836;38.672;2024-02-23T06:11:03;8.17;63.50
64882;HTU21D;51375;44.836;38.672;2024-02-23T06:13:30;8.15;63.52
64882;HTU21D;51375;44.836;38.672;2024-02-23T06:15:56;8.07;63.73
64882;HTU21D;51375;44.836;38.672;2024-02-23T06:18:22;8.07;64.10
64882;HTU21D;51375;44.836;38.672;2024-02-23T06:20:51;8.20;63.93
64882;HTU21D;51375;44.836;38.672;2024-02-23T06:23:17;8.26;63.66
64882;HTU21D;51375;44.836;38.672;2024-02-23T06:25:44;8.28;63.73
64882;HTU21D;51375;44.836;38.672;2024-02-23T06:28:10;8.33;63.85
64882;HTU21D;51375;44.836;38.672;2024-02-23T06:30:36;8.41;63.87
64882;HTU21D;51375;44.836;38.672;2024-02-23T06:33:02;8.46;63.91
64882;HTU21D;51375;44.836;38.672;2024-02-23T06:35:30;8.49;63.90
64882;HTU21D;51375;44.836;38.672;2024-02-23T06:37:56;8.52;63.96
64882;HTU21D;51375;44.836;38.672;2024-02-23T06:40:22;8.59;63.97
64882;HTU21D;51375;44.836;38.672;2024-02-23T06:42:48;8.70;63.91
64882;HTU21D;51375;44.836;38.672;2024-02-23T06:45:16;8.86;63.73
64882;HTU21D;51375;44.836;38.672;2024-02-23T06:47:44;9.00;63.55
64882;HTU21D;51375;44.836;38.672;2024-02-23T06:50:10;9.14;63.27
64882;HTU21D;51375;44.836;38.672;2024-02-23T06:52:37;9.20;63.24
64882;HTU21D;51375;44.836;38.672;2024-02-23T06:55:04;9.32;63.20
64882;HTU21D;51375;44.836;38.672;2024-02-23T06:57:30;9.48;63.04
64882;HTU21D;51375;44.836;38.672;2024-02-23T06:59:56;9.65;62.78
64882;HTU21D;51375;44.836;38.672;2024-02-23T07:02:22;9.75;62.63
64882;HTU21D;51375;44.836;38.672;2024-02-23T07:04:48;9.81;62.67
64882;HTU21D;51375;44.836;38.672;2024-02-23T07:07:14;9.93;62.61
64882;HTU21D;51375;44.836;38.672;2024-02-23T07:09:40;10.03;62.53
64882;HTU21D;51375;44.836;38.672;2024-02-23T07:12:06;10.14;62.43
64882;HTU21D;51375;44.836;38.672;2024-02-23T07:14:32;10.21;62.23
64882;HTU21D;51375;44.836;38.672;2024-02-23T07:16:59;10.22;62.48
64882;HTU21D;51375;44.836;38.672;2024-02-23T07:19:24;10.30;62.43
64882;HTU21D;51375;44.836;38.672;2024-02-23T07:21:50;10.38;62.42
64882;HTU21D;51375;44.836;38.672;2024-02-23T07:24:16;10.43;62.36
64882;HTU21D;51375;44.836;38.672;2024-02-23T07:26:43;10.52;62.36
64882;HTU21D;51375;44.836;38.672;2024-02-23T07:29:09;10.64;62.35
64882;HTU21D;51375;44.836;38.672;2024-02-23T07:31:35;10.77;62.25
64882;HTU21D;51375;44.836;38.672;2024-02-23T07:34:01;10.88;61.92
64882;HTU21D;51375;44.836;38.672;2024-02-23T07:36:27;10.89;61.50
64882;HTU21D;51375;44.836;38.672;2024-02-23T07:38:53;10.83;61.45
64882;HTU21D;51375;44.836;38.672;2024-02-23T07:41:19;10.79;61.54
64882;HTU21D;51375;44.836;38.672;2024-02-23T07:43:45;10.77;61.78
64882;HTU21D;51375;44.836;38.672;2024-02-23T07:46:12;10.80;61.79
64882;HTU21D;51375;44.836;38.672;2024-02-23T07:48:38;10.86;62.08
64882;HTU21D;51375;44.836;38.672;2024-02-23T07:51:07;11.00;61.92
64882;HTU21D;51375;44.836;38.672;2024-02-23T07:53:34;11.12;61.76
64882;HTU21D;51375;44.836;38.672;2024-02-23T07:56:00;11.22;61.79
64882;HTU21D;51375;44.836;38.672;2024-02-23T07:58:28;11.32;61.51
64882;HTU21D;51375;44.836;38.672;2024-02-23T08:00:54;11.41;60.99
64882;HTU21D;51375;44.836;38.672;2024-02-23T08:03:20;11.47;61.12
64882;HTU21D;51375;44.836;38.672;2024-02-23T08:05:46;11.54;61.13
64882;HTU21D;51375;44.836;38.672;2024-02-23T08:08:12;11.66;61.08
64882;HTU21D;51375;44.836;38.672;2024-02-23T08:10:38;11.73;60.31
64882;HTU21D;51375;44.836;38.672;2024-02-23T08:13:04;11.76;60.51
64882;HTU21D;51375;44.836;38.672;2024-02-23T08:15:30;11.83;60.42
64882;HTU21D;51375;44.836;38.672;2024-02-23T08:17:57;11.94;60.55
64882;HTU21D;51375;44.836;38.672;2024-02-23T08:20:25;12.08;60.22
64882;HTU21D;51375;44.836;38.672;2024-02-23T08:22:53;12.16;59.72
64882;HTU21D;51375;44.836;38.672;2024-02-23T08:25:19;12.14;59.24
64882;HTU21D;51375;44.836;38.672;2024-02-23T08:27:46;12.15;59.45
64882;HTU21D;51375;44.836;38.672;2024-02-23T08:30:15;12.18;59.20
64882;HTU21D;51375;44.836;38.672;2024-02-23T08:32:43;12.22;59.51
64882;HTU21D;51375;44.836;38.672;2024-02-23T08:35:12;12.34;59.56
64882;HTU21D;51375;44.836;38.672;2024-02-23T08:37:38;12.43;58.93
64882;HTU21D;51375;44.836;38.672;2024-02-23T08:40:04;12.43;58.90
64882;HTU21D;51375;44.836;38.672;2024-02-23T08:42:32;12.48;58.73
64882;HTU21D;51375;44.836;38.672;2024-02-23T08:44:58;12.51;58.87
64882;HTU21D;51375;44.836;38.672;2024-02-23T08:47:24;12.60;58.70
64882;HTU21D;51375;44.836;38.672;2024-02-23T08:49:50;12.58;58.51
64882;HTU21D;51375;44.836;38.672;2024-02-23T08:52:16;12.62;58.60
64882;HTU21D;51375;44.836;38.672;2024-02-23T08:54:42;12.61;58.28
64882;HTU21D;51375;44.836;38.672;2024-02-23T08:57:08;12.60;58.32
64882;HTU21D;51375;44.836;38.672;2024-02-23T08:59:34;12.62;58.41
64882;HTU21D;51375;44.836;38.672;2024-02-23T09:02:00;12.69;58.48
64882;HTU21D;51375;44.836;38.672;2024-02-23T09:04:27;12.73;58.40
64882;HTU21D;51375;44.836;38.672;2024-02-23T09:06:53;12.74;58.29
64882;HTU21D;51375;44.836;38.672;2024-02-23T09:09:19;12.74;57.97
64882;HTU21D;51375;44.836;38.672;2024-02-23T09:11:46;12.72;58.28
64882;HTU21D;51375;44.836;38.672;2024-02-23T09:14:12;12.79;58.02
64882;HTU21D;51375;44.836;38.672;2024-02-23T09:16:37;12.87;57.93
64882;HTU21D;51375;44.836;38.672;2024-02-23T09:19:04;12.94;57.79
64882;HTU21D;51375;44.836;38.672;2024-02-23T09:21:30;12.94;57.57
64882;HTU21D;51375;44.836;38.672;2024-02-23T09:23:56;12.93;57.62
64882;HTU21D;51375;44.836;38.672;2024-02-23T09:26:24;12.97;57.62
64882;HTU21D;51375;44.836;38.672;2024-02-23T09:28:50;13.01;57.58
64882;HTU21D;51375;44.836;38.672;2024-02-23T09:31:16;13.08;57.59
64882;HTU21D;51375;44.836;38.672;2024-02-23T09:33:42;13.11;57.17
64882;HTU21D;51375;44.836;38.672;2024-02-23T09:36:09;13.11;57.27
64882;HTU21D;51375;44.836;38.672;2024-02-23T09:38:35;13.10;57.33
64882;HTU21D;51375;44.836;38.672;2024-02-23T09:41:01;13.17;57.45
64882;HTU21D;51375;44.836;38.672;2024-02-23T09:43:31;13.26;57.30
64882;HTU21D;51375;44.836;38.672;2024-02-23T09:45:59;13.29;57.04
64882;HTU21D;51375;44.836;38.672;2024-02-23T09:48:25;13.32;57.18
64882;HTU21D;51375;44.836;38.672;2024-02-23T09:50:52;13.37;57.01
64882;HTU21D;51375;44.836;38.672;2024-02-23T09:53:19;13.41;56.94
64882;HTU21D;51375;44.836;38.672;2024-02-23T09:55:48;13.45;56.81
64882;HTU21D;51375;44.836;38.672;2024-02-23T09:58:17;13.47;56.86
64882;HTU21D;51375;44.836;38.672;2024-02-23T10:00:44;13.55;56.87
64882;HTU21D;51375;44.836;38.672;2024-02-23T10:03:10;13.67;56.61
64882;HTU21D;51375;44.836;38.672;2024-02-23T10:05:36;13.67;56.47
64882;HTU21D;51375;44.836;38.672;2024-02-23T10:08:04;13.68;56.29
64882;HTU21D;51375;44.836;38.672;2024-02-23T10:10:32;13.63;56.36
64882;HTU21D;51375;44.836;38.672;2024-02-23T10:12:59;13.62;56.10
64882;HTU21D;51375;44.836;38.672;2024-02-23T10:15:28;13.50;55.74
64882;HTU21D;51375;44.836;38.672;2024-02-23T10:17:54;13.38;55.97
64882;HTU21D;51375;44.836;38.672;2024-02-23T10:20:20;13.35;56.13
64882;HTU21D;51375;44.836;38.672;2024-02-23T10:22:47;13.32;56.19
64882;HTU21D;51375;44.836;38.672;2024-02-23T10:25:13;13.31;56.13
64882;HTU21D;51375;44.836;38.672;2024-02-23T10:27:43;13.29;56.19
64882;HTU21D;51375;44.836;38.672;2024-02-23T10:30:10;13.21;55.94
64882;HTU21D;51375;44.836;38.672;2024-02-23T10:32:41;13.06;55.87
64882;HTU21D;51375;44.836;38.672;2024-02-23T10:35:13;12.95;56.21
64882;HTU21D;51375;44.836;38.672;2024-02-23T10:37:42;12.89;56.36
64882;HTU21D;51375;44.836;38.672;2024-02-23T10:40:11;12.81;56.67
64882;HTU21D;51375;44.836;38.672;2024-02-23T10:42:38;12.77;56.76
64882;HTU21D;51375;44.836;38.672;2024-02-23T10:45:06;12.75;56.88
64882;HTU21D;51375;44.836;38.672;2024-02-23T10:47:34;12.74;56.74
64882;HTU21D;51375;44.836;38.672;2024-02-23T10:50:01;12.69;56.89
64882;HTU21D;51375;44.836;38.672;2024-02-23T10:52:29;12.70;57.16
64882;HTU21D;51375;44.836;38.672;2024-02-23T10:54:57;12.73;57.22
64882;HTU21D;51375;44.836;38.672;2024-02-23T10:57:26;12.78;57.18
64882;HTU21D;51375;44.836;38.672;2024-02-23T10:59:53;12.76;57.16
64882;HTU21D;51375;44.836;38.672;2024-02-23T11:02:21;12.72;57.36
64882;HTU21D;51375;44.836;38.672;2024-02-23T11:04:49;12.73;57.38
64882;HTU21D;51375;44.836;38.672;2024-02-23T11:07:19;12.72;57.52
64882;HTU21D;51375;44.836;38.672;2024-02-23T11:09:58;12.71;57.53
64882;HTU21D;51375;44.836;38.672;2024-02-23T11:12:30;12.73;57.57
64882;HTU21D;51375;44.836;38.672;2024-02-23T11:14:58;12.72;57.61
64882;HTU21D;51375;44.836;38.672;2024-02-23T11:17:30;12.73;57.42
64882;HTU21D;51375;44.836;38.672;2024-02-23T11:19:56;12.69;57.42
64882;HTU21D;51375;44.836;38.672;2024-02-23T11:22:26;12.66;57.58
64882;HTU21D;51375;44.836;38.672;2024-02-23T11:24:53;12.66;57.66
64882;HTU21D;51375;44.836;38.672;2024-02-23T11:27:20;12.69;57.83
64882;HTU21D;51375;44.836;38.672;2024-02-23T11:29:47;12.76;57.77
64882;HTU21D;51375;44.836;38.672;2024-02-23T11:32:16;12.85;57.71
64882;HTU21D;51375;44.836;38.672;2024-02-23T11:34:55;12.95;57.64
64882;HTU21D;51375;44.836;38.672;2024-02-23T11:37:22;13.14;57.50
64882;HTU21D;51375;44.836;38.672;2024-02-23T11:39:49;13.21;57.09
64882;HTU21D;51375;44.836;38.672;2024-02-23T11:42:15;13.21;57.26
64882;HTU21D;51375;44.836;38.672;2024-02-23T11:44:41;13.27;57.13
64882;HTU21D;51375;44.836;38.672;2024-02-23T11:47:07;13.27;57.04
64882;HTU21D;51375;44.836;38.672;2024-02-23T11:49:33;13.27;57.00
64882;HTU21D;51375;44.836;38.672;2024-02-23T11:52:00;13.32;56.84
64882;HTU21D;51375;44.836;38.672;2024-02-23T11:54:26;13.31;57.04
64882;HTU21D;51375;44.836;38.672;2024-02-23T11:56:52;13.39;56.66
64882;HTU21D;51375;44.836;38.672;2024-02-23T11:59:20;13.37;56.62
64882;HTU21D;51375;44.836;38.672;2024-02-23T12:01:46;13.43;56.61
64882;HTU21D;51375;44.836;38.672;2024-02-23T12:04:15;13.45;56.54
64882;HTU21D;51375;44.836;38.672;2024-02-23T12:06:44;13.48;56.61
64882;HTU21D;51375;44.836;38.672;2024-02-23T12:09:12;13.55;56.68
64882;HTU21D;51375;44.836;38.672;2024-02-23T12:11:39;13.64;56.42
64882;HTU21D;51375;44.836;38.672;2024-02-23T12:14:05;13.67;56.48
64882;HTU21D;51375;44.836;38.672;2024-02-23T12:16:35;13.73;56.42
64882;HTU21D;51375;44.836;38.672;2024-02-23T12:19:02;13.78;56.42
64882;HTU21D;51375;44.836;38.672;2024-02-23T12:21:34;13.85;56.30
64882;HTU21D;51375;44.836;38.672;2024-02-23T12:24:04;13.95;56.21
64882;HTU21D;51375;44.836;38.672;2024-02-23T12:26:34;13.99;56.12
64882;HTU21D;51375;44.836;38.672;2024-02-23T12:29:01;14.08;56.03
64882;HTU21D;51375;44.836;38.672;2024-02-23T12:31:28;14.15;55.75
64882;HTU21D;51375;44.836;38.672;2024-02-23T12:33:57;14.11;55.67
64882;HTU21D;51375;44.836;38.672;2024-02-23T12:36:30;14.06;55.65
64882;HTU21D;51375;44.836;38.672;2024-02-23T12:39:00;13.96;55.79
64882;HTU21D;51375;44.836;38.672;2024-02-23T12:41:26;13.94;55.95
64882;HTU21D;51375;44.836;38.672;2024-02-23T12:43:52;13.92;55.95
64882;HTU21D;51375;44.836;38.672;2024-02-23T12:46:18;13.90;55.78
64882;HTU21D;51375;44.836;38.672;2024-02-23T12:48:44;13.85;55.75
64882;HTU21D;51375;44.836;38.672;2024-02-23T12:51:10;13.82;55.85
64882;HTU21D;51375;44.836;38.672;2024-02-23T12:53:39;13.81;55.77
64882;HTU21D;51375;44.836;38.672;2024-02-23T12:56:14;13.71;55.59
64882;HTU21D;51375;44.836;38.672;2024-02-23T12:58:42;13.58;55.71
64882;HTU21D;51375;44.836;38.672;2024-02-23T13:01:10;13.46;55.85
64882;HTU21D;51375;44.836;38.672;2024-02-23T13:03:37;13.34;56.12
64882;HTU21D;51375;44.836;38.672;2024-02-23T13:06:04;13.19;56.28
64882;HTU21D;51375;44.836;38.672;2024-02-23T13:08:30;13.07;56.55
64882;HTU21D;51375;44.836;38.672;2024-02-23T13:10:57;12.97;56.77
64882;HTU21D;51375;44.836;38.672;2024-02-23T13:13:24;12.90;56.93
64882;HTU21D;51375;44.836;38.672;2024-02-23T13:15:52;12.86;57.12
64882;HTU21D;51375;44.836;38.672;2024-02-23T13:18:18;12.84;57.06
64882;HTU21D;51375;44.836;38.672;2024-02-23T13:20:47;12.81;56.93
64882;HTU21D;51375;44.836;38.672;2024-02-23T13:23:14;12.78;57.04
64882;HTU21D;51375;44.836;38.672;2024-02-23T13:25:42;12.72;57.19
64882;HTU21D;51375;44.836;38.672;2024-02-23T13:28:09;12.67;57.16
64882;HTU21D;51375;44.836;38.672;2024-02-23T13:30:37;12.64;57.39
64882;HTU21D;51375;44.836;38.672;2024-02-23T13:33:04;12.66;57.30
64882;HTU21D;51375;44.836;38.672;2024-02-23T13:35:31;12.67;57.16
64882;HTU21D;51375;44.836;38.672;2024-02-23T13:37:57;12.58;57.30
64882;HTU21D;51375;44.836;38.672;2024-02-23T13:40:24;12.52;57.42
64882;HTU21D;51375;44.836;38.672;2024-02-23T13:42:50;12.47;57.58
64882;HTU21D;51375;44.836;38.672;2024-02-23T13:45:18;12.48;57.76
64882;HTU21D;51375;44.836;38.672;2024-02-23T13:48:05;12.48;57.77
64882;HTU21D;51375;44.836;38.672;2024-02-23T13:50:32;12.56;57.73
64882;HTU21D;51375;44.836;38.672;2024-02-23T13:52:58;12.61;57.71
64882;HTU21D;51375;44.836;38.672;2024-02-23T13:55:24;12.64;57.63
64882;HTU21D;51375;44.836;38.672;2024-02-23T13:57:50;12.64;57.77
64882;HTU21D;51375;44.836;38.672;2024-02-23T14:00:18;12.67;57.79
64882;HTU21D;51375;44.836;38.672;2024-02-23T14:02:44;12.75;57.79
64882;HTU21D;51375;44.836;38.672;2024-02-23T14:05:10;12.80;57.68
64882;HTU21D;51375;44.836;38.672;2024-02-23T14:07:36;12.84;57.61
64882;HTU21D;51375;44.836;38.672;2024-02-23T14:10:03;12.79;57.77
64882;HTU21D;51375;44.836;38.672;2024-02-23T14:12:32;12.78;57.87
64882;HTU21D;51375;44.836;38.672;2024-02-23T14:14:59;12.73;58.04
64882;HTU21D;51375;44.836;38.672;2024-02-23T14:17:25;12.73;58.21
64882;HTU21D;51375;44.836;38.672;2024-02-23T14:19:51;12.79;58.36
64882;HTU21D;51375;44.836;38.672;2024-02-23T14:22:18;12.85;58.25
64882;HTU21D;51375;44.836;38.672;2024-02-23T14:24:44;12.87;58.09
64882;HTU21D;51375;44.836;38.672;2024-02-23T14:27:10;12.78;58.18
64882;HTU21D;51375;44.836;38.672;2024-02-23T14:29:36;12.73;58.40
64882;HTU21D;51375;44.836;38.672;2024-02-23T14:32:02;12.72;58.48
64882;HTU21D;51375;44.836;38.672;2024-02-23T14:34:29;12.73;58.40
64882;HTU21D;51375;44.836;38.672;2024-02-23T14:36:56;12.69;58.47
64882;HTU21D;51375;44.836;38.672;2024-02-23T14:39:22;12.64;58.55
64882;HTU21D;51375;44.836;38.672;2024-02-23T14:41:48;12.61;58.60
64882;HTU21D;51375;44.836;38.672;2024-02-23T14:44:14;12.59;58.64
64882;HTU21D;51375;44.836;38.672;2024-02-23T14:46:40;12.58;58.67
64882;HTU21D;51375;44.836;38.672;2024-02-23T14:49:07;12.55;58.74
64882;HTU21D;51375;44.836;38.672;2024-02-23T14:51:33;12.51;58.75
64882;HTU21D;51375;44.836;38.672;2024-02-23T14:54:00;12.47;58.77
64882;HTU21D;51375;44.836;38.672;2024-02-23T14:56:28;12.43;58.80
64882;HTU21D;51375;44.836;38.672;2024-02-23T14:58:54;12.41;58.75
64882;HTU21D;51375;44.836;38.672;2024-02-23T15:01:21;12.35;58.71
64882;HTU21D;51375;44.836;38.672;2024-02-23T15:03:47;12.30;58.74